THY1721 LTFM-EDDB
Flight info
| Callsign | THY1721 |
|---|---|
| Flight time | N/A |
| Altitude | 40000 |
| Route | TUDBU Q26 ETUBA DCT EVRIK DCT LITKU DCT ROMIS DCT BEFRE T204 NUKRO NUKRO1R |
| Aircraft | A333/H-SDE3GHIJ2J3J5M1RVWXY/LB2D1 |
Departure
| Time | 2026-05-07 22:52 |
|---|---|
| Airport | İstanbul Airport (LTFM) |
Arrival
| Time | N/A |
|---|---|
| Airport | Berlin Brandenburg Airport (EDDB) |
| Time | Latitude | Longitude | Altitude | Speed | Heading |
|---|---|---|---|---|---|
| 2026-05-07 22:21 | 41.26770 | 28.73534 | 338 ft | 0 kts | 180° |
| 2026-05-07 22:39 | 41.26781 | 28.73534 | 338 ft | 2 kts | 180° |
| 2026-05-07 22:40 | 41.26796 | 28.73534 | 338 ft | 2 kts | 180° |
| 2026-05-07 22:40 | 41.26811 | 28.73534 | 338 ft | 2 kts | 185° |
| 2026-05-07 22:40 | 41.26825 | 28.73538 | 338 ft | 2 kts | 205° |
| 2026-05-07 22:40 | 41.26839 | 28.73548 | 338 ft | 2 kts | 220° |
| 2026-05-07 22:41 | 41.26849 | 28.73562 | 338 ft | 2 kts | 235° |
| 2026-05-07 22:41 | 41.26857 | 28.73580 | 338 ft | 2 kts | 251° |
| 2026-05-07 22:41 | 41.26860 | 28.73599 | 338 ft | 2 kts | 266° |
| 2026-05-07 22:41 | 41.26861 | 28.73608 | 338 ft | 1 kts | 270° |
| 2026-05-07 22:42 | 41.26861 | 28.73609 | 338 ft | 0 kts | 270° |
| 2026-05-07 22:43 | 41.26861 | 28.73608 | 338 ft | 0 kts | 270° |
| 2026-05-07 22:43 | 41.26861 | 28.73593 | 338 ft | 5 kts | 270° |
| 2026-05-07 22:43 | 41.26862 | 28.73512 | 338 ft | 12 kts | 270° |
| 2026-05-07 22:44 | 41.26859 | 28.73383 | 338 ft | 15 kts | 268° |
| 2026-05-07 22:44 | 41.26857 | 28.73237 | 338 ft | 15 kts | 269° |
| 2026-05-07 22:44 | 41.26879 | 28.73117 | 338 ft | 13 kts | 332° |
| 2026-05-07 22:44 | 41.26972 | 28.73103 | 338 ft | 13 kts | 359° |
| 2026-05-07 22:45 | 41.27066 | 28.73101 | 338 ft | 13 kts | 359° |
| 2026-05-07 22:45 | 41.27166 | 28.73099 | 338 ft | 17 kts | 359° |
| 2026-05-07 22:45 | 41.27307 | 28.73097 | 338 ft | 22 kts | 360° |
| 2026-05-07 22:45 | 41.27474 | 28.73094 | 338 ft | 24 kts | 359° |
| 2026-05-07 22:46 | 41.27642 | 28.73090 | 338 ft | 21 kts | 359° |
| 2026-05-07 22:46 | 41.27753 | 28.73082 | 338 ft | 13 kts | 341° |
| 2026-05-07 22:46 | 41.27834 | 28.73022 | 338 ft | 13 kts | 329° |
| 2026-05-07 22:46 | 41.27919 | 28.72974 | 338 ft | 13 kts | 350° |
| 2026-05-07 22:47 | 41.28011 | 28.72967 | 338 ft | 13 kts | 359° |
| 2026-05-07 22:47 | 41.28103 | 28.72965 | 338 ft | 13 kts | 359° |
| 2026-05-07 22:47 | 41.28196 | 28.72964 | 338 ft | 13 kts | 359° |
| 2026-05-07 22:47 | 41.28290 | 28.72963 | 338 ft | 13 kts | 359° |
| 2026-05-07 22:48 | 41.28383 | 28.72960 | 338 ft | 13 kts | 359° |
| 2026-05-07 22:48 | 41.28476 | 28.72958 | 338 ft | 13 kts | 359° |
| 2026-05-07 22:48 | 41.28569 | 28.72956 | 338 ft | 13 kts | 359° |
| 2026-05-07 22:48 | 41.28683 | 28.72954 | 338 ft | 22 kts | 359° |
| 2026-05-07 22:49 | 41.28881 | 28.72952 | 338 ft | 32 kts | 359° |
| 2026-05-07 22:49 | 41.29121 | 28.72945 | 338 ft | 35 kts | 359° |
| 2026-05-07 22:49 | 41.29358 | 28.72942 | 338 ft | 33 kts | 359° |
| 2026-05-07 22:49 | 41.29570 | 28.72939 | 338 ft | 24 kts | 359° |
| 2026-05-07 22:50 | 41.29722 | 28.72935 | 338 ft | 16 kts | 359° |
| 2026-05-07 22:50 | 41.29777 | 28.72918 | 338 ft | 7 kts | 308° |
| 2026-05-07 22:50 | 41.29785 | 28.72830 | 338 ft | 11 kts | 269° |
| 2026-05-07 22:50 | 41.29783 | 28.72726 | 338 ft | 8 kts | 256° |
| 2026-05-07 22:51 | 41.29733 | 28.72703 | 338 ft | 9 kts | 176° |
| 2026-05-07 22:51 | 41.29514 | 28.72711 | 339 ft | 67 kts | 179° |
| 2026-05-07 22:51 | 41.28780 | 28.72724 | 339 ft | 140 kts | 179° |
| 2026-05-07 22:51 | 41.27611 | 28.72749 | 464 ft | 185 kts | 179° |
| 2026-05-07 22:52 | 41.26345 | 28.72734 | 1332 ft | 181 kts | 182° |
| 2026-05-07 22:52 | 41.25117 | 28.72684 | 2368 ft | 175 kts | 187° |
| 2026-05-07 22:52 | 41.23941 | 28.72590 | 3427 ft | 175 kts | 191° |
| 2026-05-07 22:52 | 41.22910 | 28.71882 | 4505 ft | 178 kts | 234° |
| 2026-05-07 22:53 | 41.22276 | 28.70519 | 5449 ft | 173 kts | 242° |
| 2026-05-07 22:53 | 41.21632 | 28.69084 | 5750 ft | 192 kts | 242° |
| 2026-05-07 22:53 | 41.20904 | 28.67463 | 6174 ft | 214 kts | 242° |
| 2026-05-07 22:53 | 41.20251 | 28.65600 | 6680 ft | 231 kts | 261° |
| 2026-05-07 22:54 | 41.20384 | 28.63432 | 7192 ft | 249 kts | 290° |
| 2026-05-07 22:54 | 41.21416 | 28.61500 | 7745 ft | 269 kts | 319° |
| 2026-05-07 22:54 | 41.23080 | 28.60300 | 8642 ft | 275 kts | 333° |
| 2026-05-07 22:54 | 41.24788 | 28.59183 | 9528 ft | 278 kts | 331° |
| 2026-05-07 22:55 | 41.26521 | 28.58027 | 10391 ft | 282 kts | 331° |
| 2026-05-07 22:55 | 41.28319 | 28.56814 | 10898 ft | 299 kts | 328° |
| 2026-05-07 22:55 | 41.30006 | 28.55034 | 11303 ft | 318 kts | 318° |
| 2026-05-07 22:55 | 41.31730 | 28.53068 | 11722 ft | 337 kts | 318° |
| 2026-05-07 22:56 | 41.33554 | 28.50979 | 12139 ft | 355 kts | 319° |
| 2026-05-07 22:56 | 41.35479 | 28.48774 | 12808 ft | 364 kts | 319° |